createdAt,value
2018-09-23T00:00:11.643Z,22.76
2018-09-23T00:02:37.988Z,22.74
2018-09-23T00:05:04.328Z,22.74
2018-09-23T00:07:30.645Z,22.75
2018-09-23T00:09:56.973Z,22.77
2018-09-23T00:12:23.318Z,22.77
2018-09-23T00:14:49.633Z,22.75
2018-09-23T00:17:15.980Z,22.74
2018-09-23T00:19:42.324Z,22.69
2018-09-23T00:22:08.663Z,22.64
2018-09-23T00:24:34.962Z,22.66
2018-09-23T00:27:01.283Z,22.65
2018-09-23T00:29:27.606Z,22.63
2018-09-23T00:31:53.958Z,22.63
2018-09-23T00:34:20.273Z,22.60
2018-09-23T00:36:46.617Z,22.59
2018-09-23T00:39:12.979Z,22.58
2018-09-23T00:41:39.299Z,22.54
2018-09-23T00:44:05.678Z,22.51
2018-09-23T00:46:32.015Z,22.55
2018-09-23T00:48:58.365Z,22.55
2018-09-23T00:51:24.673Z,22.53
2018-09-23T00:53:51.020Z,22.51
2018-09-23T00:56:17.339Z,22.48
2018-09-23T00:58:43.664Z,22.41
2018-09-23T01:01:10.054Z,22.37
2018-09-23T01:03:36.412Z,22.40
2018-09-23T01:06:02.727Z,22.43
2018-09-23T01:08:29.090Z,22.39
2018-09-23T01:10:55.433Z,22.36
2018-09-23T01:13:21.778Z,22.36
2018-09-23T01:15:48.176Z,22.30
2018-09-23T01:18:14.525Z,22.30
2018-09-23T01:20:40.864Z,22.30
2018-09-23T01:23:07.186Z,22.29
2018-09-23T01:25:33.528Z,22.26
2018-09-23T01:27:59.871Z,22.22
2018-09-23T01:30:26.238Z,22.21
2018-09-23T01:32:52.536Z,22.21
2018-09-23T01:35:18.902Z,22.19
2018-09-23T01:37:45.240Z,22.19
2018-09-23T01:40:11.580Z,22.17
2018-09-23T01:42:37.894Z,22.11
2018-09-23T01:45:04.220Z,22.07
2018-09-23T01:47:30.567Z,22.07
2018-09-23T01:49:56.883Z,22.06
2018-09-23T01:52:23.235Z,22.06
2018-09-23T01:54:49.553Z,22.02
2018-09-23T01:57:15.866Z,22.00
2018-09-23T01:59:42.211Z,21.95
2018-09-23T02:02:08.555Z,21.93
2018-09-23T02:04:34.878Z,21.90
2018-09-23T02:07:01.224Z,21.89
2018-09-23T02:09:27.576Z,21.85
2018-09-23T02:11:53.920Z,21.83
2018-09-23T02:14:20.280Z,21.77
2018-09-23T02:16:46.554Z,21.72
2018-09-23T02:19:12.874Z,21.70
2018-09-23T02:21:39.213Z,21.68
2018-09-23T02:24:05.554Z,21.65
2018-09-23T02:26:31.907Z,21.64
2018-09-23T02:28:58.256Z,21.64
2018-09-23T02:31:24.603Z,21.62
2018-09-23T02:33:50.943Z,21.56
2018-09-23T02:36:17.296Z,21.55
2018-09-23T02:38:43.700Z,21.50
2018-09-23T02:41:10.047Z,21.45
2018-09-23T02:43:36.369Z,21.44
2018-09-23T02:46:02.720Z,21.36
2018-09-23T02:48:29.070Z,21.31
2018-09-23T02:50:55.381Z,21.30
2018-09-23T02:53:21.715Z,21.27
2018-09-23T02:55:48.045Z,21.24
2018-09-23T02:58:14.424Z,21.21
2018-09-23T03:00:40.752Z,21.17
2018-09-23T03:03:07.097Z,21.17
2018-09-23T03:05:33.437Z,21.19
2018-09-23T03:07:59.816Z,21.20
2018-09-23T03:10:26.125Z,21.19
2018-09-23T03:12:52.440Z,21.21
2018-09-23T03:15:18.760Z,21.19
2018-09-23T03:17:45.102Z,21.14
2018-09-23T03:20:11.423Z,21.13
2018-09-23T03:22:37.759Z,21.13
2018-09-23T03:25:04.087Z,21.17
2018-09-23T03:27:30.400Z,21.15
2018-09-23T03:29:56.713Z,21.15
2018-09-23T03:32:23.058Z,21.10
2018-09-23T03:34:49.377Z,21.06
2018-09-23T03:37:15.734Z,21.04
2018-09-23T03:39:42.073Z,20.91
2018-09-23T03:42:08.462Z,20.82
2018-09-23T03:44:34.776Z,20.78
2018-09-23T03:47:01.095Z,20.79
2018-09-23T03:49:27.440Z,20.80
2018-09-23T03:51:53.822Z,20.84
2018-09-23T03:54:20.136Z,20.85
2018-09-23T03:56:46.523Z,20.84
2018-09-23T03:59:12.840Z,20.87
2018-09-23T04:04:05.497Z,20.84
2018-09-23T04:06:31.819Z,20.84
2018-09-23T04:08:58.135Z,20.81
2018-09-23T04:11:24.450Z,20.78
2018-09-23T04:13:50.778Z,20.79
2018-09-23T04:16:17.125Z,20.79
2018-09-23T04:18:43.460Z,20.76
2018-09-23T04:21:09.761Z,20.72
2018-09-23T04:23:36.149Z,20.70
2018-09-23T04:26:02.465Z,20.67
2018-09-23T04:28:28.782Z,20.64
2018-09-23T04:30:55.124Z,20.61
2018-09-23T04:33:21.464Z,20.57
2018-09-23T04:35:47.818Z,20.53
2018-09-23T04:38:14.163Z,20.54
2018-09-23T04:40:40.510Z,20.57
2018-09-23T04:43:06.824Z,20.55
2018-09-23T04:45:33.189Z,20.54
2018-09-23T04:47:59.524Z,20.55
2018-09-23T04:50:25.841Z,20.54
2018-09-23T04:52:52.169Z,20.53
2018-09-23T04:55:18.607Z,20.56
2018-09-23T04:57:44.835Z,20.56
2018-09-23T05:00:11.232Z,20.59
2018-09-23T05:02:37.589Z,20.59
2018-09-23T05:05:03.933Z,20.63
2018-09-23T05:07:30.250Z,20.65
2018-09-23T05:09:56.589Z,20.67
2018-09-23T05:12:22.914Z,20.70
2018-09-23T05:14:49.301Z,20.75
2018-09-23T05:17:15.623Z,20.81
2018-09-23T05:19:41.963Z,20.86
2018-09-23T05:22:08.350Z,20.95
2018-09-23T05:24:34.718Z,21.06
2018-09-23T05:27:01.033Z,21.12
2018-09-23T05:29:27.432Z,21.16
2018-09-23T05:31:53.755Z,21.18
2018-09-23T05:34:20.062Z,21.26
2018-09-23T05:36:46.403Z,21.41
2018-09-23T05:39:12.719Z,21.50
2018-09-23T05:41:39.076Z,21.58
2018-09-23T05:44:05.513Z,21.67
2018-09-23T05:46:31.789Z,21.76
2018-09-23T05:48:58.129Z,21.81
2018-09-23T05:51:24.447Z,21.90
2018-09-23T05:53:50.790Z,21.97
2018-09-23T05:56:17.103Z,22.02
2018-09-23T05:58:43.449Z,22.08
2018-09-23T06:01:09.787Z,22.13
2018-09-23T06:03:36.107Z,22.21
2018-09-23T06:06:02.455Z,22.34
2018-09-23T06:08:28.784Z,22.42
2018-09-23T06:10:55.099Z,22.50
2018-09-23T06:13:21.440Z,22.65
2018-09-23T06:15:47.755Z,22.74
2018-09-23T06:18:14.100Z,22.83
2018-09-23T06:20:40.463Z,23.00
2018-09-23T06:23:06.817Z,23.08
2018-09-23T06:25:33.127Z,23.14
2018-09-23T06:27:59.445Z,23.18
2018-09-23T06:30:25.783Z,23.32
2018-09-23T06:32:52.109Z,23.49
2018-09-23T06:35:18.426Z,23.68
2018-09-23T06:37:44.742Z,23.84
2018-09-23T06:40:11.063Z,24.03
2018-09-23T06:42:37.383Z,24.18
2018-09-23T06:45:03.745Z,24.29
2018-09-23T06:47:30.085Z,24.39
2018-09-23T06:49:56.423Z,24.46
2018-09-23T06:52:22.740Z,24.53
2018-09-23T06:54:49.059Z,24.63
2018-09-23T06:57:15.396Z,24.76
2018-09-23T06:59:41.721Z,24.81
2018-09-23T07:02:08.038Z,24.94
2018-09-23T07:04:34.455Z,24.97
2018-09-23T07:07:00.720Z,25.04
2018-09-23T07:09:27.059Z,25.25
2018-09-23T07:11:53.399Z,25.44
2018-09-23T07:14:19.764Z,25.55
2018-09-23T07:16:46.104Z,25.65
2018-09-23T07:19:12.444Z,25.69
2018-09-23T07:21:38.758Z,25.81
2018-09-23T07:24:05.218Z,25.90
2018-09-23T07:26:31.417Z,25.97
2018-09-23T07:28:57.735Z,26.13
2018-09-23T07:31:24.063Z,26.29
2018-09-23T07:33:50.403Z,26.43
2018-09-23T07:36:16.759Z,26.62
2018-09-23T07:38:43.081Z,26.75
2018-09-23T07:41:09.419Z,26.88
2018-09-23T07:43:35.719Z,27.02
2018-09-23T07:46:02.042Z,27.10
2018-09-23T07:48:28.358Z,27.22
2018-09-23T07:50:54.833Z,27.22
2018-09-23T07:53:21.151Z,27.38
2018-09-23T07:55:47.462Z,27.56
2018-09-23T07:58:13.779Z,27.72
2018-09-23T08:00:40.099Z,27.79
2018-09-23T08:03:06.435Z,27.90
2018-09-23T08:05:32.833Z,28.00
2018-09-23T08:07:59.122Z,28.11
2018-09-23T08:10:25.560Z,28.27
2018-09-23T08:12:52.049Z,28.38
2018-09-23T08:15:18.207Z,28.42
2018-09-23T08:17:44.547Z,28.46
2018-09-23T08:20:12.092Z,28.43
2018-09-23T08:22:38.307Z,28.53
2018-09-23T08:25:04.695Z,28.64
2018-09-23T08:27:31.016Z,28.80
2018-09-23T08:29:57.358Z,28.89
2018-09-23T08:32:23.714Z,28.98
2018-09-23T08:34:50.057Z,29.05
2018-09-23T08:37:16.481Z,29.12
2018-09-23T08:39:42.813Z,29.19
2018-09-23T08:42:09.145Z,29.10
2018-09-23T08:44:35.470Z,28.98
2018-09-23T08:47:01.814Z,28.98
2018-09-23T08:49:29.160Z,29.09
2018-09-23T08:51:55.581Z,29.29
2018-09-23T08:54:21.824Z,29.47
2018-09-23T08:56:48.221Z,29.60
2018-09-23T08:59:14.541Z,29.74
2018-09-23T09:01:40.872Z,29.82
2018-09-23T09:04:07.204Z,29.87
2018-09-23T09:06:33.551Z,29.98
2018-09-23T09:08:59.880Z,30.10
2018-09-23T09:11:26.260Z,30.20
2018-09-23T09:13:52.591Z,30.31
2018-09-23T09:16:18.932Z,30.39
2018-09-23T09:18:45.378Z,30.51
2018-09-23T09:21:11.647Z,30.67
2018-09-23T09:23:37.990Z,30.70
2018-09-23T09:26:04.384Z,30.63
2018-09-23T09:28:30.715Z,30.68
2018-09-23T09:30:57.048Z,30.81
2018-09-23T09:33:23.379Z,30.89
2018-09-23T09:35:49.712Z,30.91
2018-09-23T09:38:16.057Z,31.01
2018-09-23T09:40:42.387Z,31.12
2018-09-23T09:43:08.731Z,31.24
2018-09-23T09:45:35.074Z,31.27
2018-09-23T09:48:01.420Z,31.26
2018-09-23T09:50:27.771Z,31.25
2018-09-23T09:52:54.095Z,31.31
2018-09-23T09:55:20.508Z,31.38
2018-09-23T09:57:46.819Z,31.45
2018-09-23T10:00:14.613Z,31.46
2018-09-23T10:02:40.952Z,31.50
2018-09-23T10:05:07.285Z,31.58
2018-09-23T10:07:33.622Z,31.69
2018-09-23T10:09:59.968Z,31.76
2018-09-23T10:12:26.310Z,31.84
2018-09-23T10:14:52.707Z,31.87
2018-09-23T10:17:19.008Z,31.92
2018-09-23T10:19:45.405Z,31.98
2018-09-23T10:22:11.701Z,32.06
2018-09-23T10:24:38.039Z,32.13
2018-09-23T10:27:04.719Z,32.16
2018-09-23T10:29:31.043Z,32.20
2018-09-23T10:31:59.417Z,32.30
2018-09-23T10:34:25.753Z,32.33
2018-09-23T10:36:52.105Z,32.39
2018-09-23T10:39:18.452Z,32.43
2018-09-23T10:41:44.789Z,32.41
2018-09-23T10:44:11.133Z,32.38
2018-09-23T10:46:37.502Z,32.31
2018-09-23T10:49:03.805Z,32.30
2018-09-23T10:51:30.184Z,32.40
2018-09-23T10:53:56.519Z,32.50
2018-09-23T10:56:22.869Z,32.56
2018-09-23T10:58:49.203Z,32.62
2018-09-23T11:01:15.549Z,32.64
2018-09-23T11:03:41.950Z,32.67
2018-09-23T11:06:08.225Z,32.71
2018-09-23T11:08:34.560Z,32.76
2018-09-23T11:11:00.912Z,32.77
2018-09-23T11:13:27.245Z,32.75
2018-09-23T11:15:53.575Z,32.79
2018-09-23T11:18:19.938Z,32.81
2018-09-23T11:20:46.283Z,32.83
2018-09-23T11:23:12.753Z,32.87
2018-09-23T11:25:39.029Z,32.86
2018-09-23T11:28:05.367Z,32.87
2018-09-23T11:30:31.754Z,32.92
2018-09-23T11:32:58.063Z,33.00
2018-09-23T11:35:24.406Z,33.04
2018-09-23T11:37:50.756Z,33.06
2018-09-23T11:40:17.088Z,33.06
2018-09-23T11:42:43.459Z,33.06
2018-09-23T11:45:09.790Z,33.05
2018-09-23T11:47:36.126Z,33.07
2018-09-23T11:50:02.460Z,33.07
2018-09-23T11:52:28.849Z,33.08
2018-09-23T11:54:55.196Z,33.11
2018-09-23T11:57:21.620Z,33.13
2018-09-23T11:59:47.901Z,33.10
2018-09-23T12:02:14.356Z,33.11
2018-09-23T12:04:40.630Z,33.12
2018-09-23T12:07:06.968Z,33.11
2018-09-23T12:09:33.346Z,33.11
2018-09-23T12:11:59.689Z,33.11
2018-09-23T12:14:26.027Z,33.08
2018-09-23T12:16:52.402Z,33.04
2018-09-23T12:19:18.723Z,33.02
2018-09-23T12:21:45.059Z,33.01
2018-09-23T12:24:11.390Z,32.99
2018-09-23T12:26:37.862Z,32.91
2018-09-23T12:29:04.269Z,32.84
2018-09-23T12:31:30.576Z,32.82
2018-09-23T12:33:56.907Z,32.77
2018-09-23T12:36:23.343Z,32.72
2018-09-23T12:38:49.672Z,32.66
2018-09-23T12:41:16.061Z,32.66
2018-09-23T12:43:42.402Z,32.58
2018-09-23T12:46:08.788Z,32.53
2018-09-23T12:48:35.197Z,32.48
2018-09-23T12:51:01.559Z,32.42
2018-09-23T12:53:28.094Z,32.34
2018-09-23T12:55:54.363Z,32.32
2018-09-23T12:58:20.733Z,32.28
2018-09-23T13:00:47.101Z,32.25
2018-09-23T13:03:13.461Z,32.20
2018-09-23T13:05:39.816Z,32.18
2018-09-23T13:08:06.161Z,32.18
2018-09-23T13:10:32.579Z,32.13
2018-09-23T13:12:58.885Z,32.09
2018-09-23T13:15:25.225Z,32.05
2018-09-23T13:17:52.704Z,32.00
2018-09-23T13:20:19.028Z,31.90
2018-09-23T13:22:45.577Z,31.80
2018-09-23T13:25:11.902Z,31.76
2018-09-23T13:27:38.244Z,31.77
2018-09-23T13:30:04.774Z,31.73
2018-09-23T13:32:31.344Z,31.69
2018-09-23T13:34:57.753Z,31.65
2018-09-23T13:37:24.303Z,31.60
2018-09-23T13:39:50.787Z,31.55
2018-09-23T13:42:17.086Z,31.47
2018-09-23T13:44:43.427Z,31.42
2018-09-23T13:47:09.841Z,31.37
2018-09-23T13:49:36.222Z,31.33
2018-09-23T13:52:02.558Z,31.28
2018-09-23T13:54:28.941Z,31.24
2018-09-23T13:56:55.231Z,31.20
2018-09-23T13:59:21.570Z,31.15
2018-09-23T14:01:48.067Z,31.12
2018-09-23T14:04:14.411Z,31.07
2018-09-23T14:06:46.896Z,31.02
2018-09-23T14:09:07.399Z,30.98
2018-09-23T14:11:33.733Z,30.91
2018-09-23T14:14:00.152Z,30.88
2018-09-23T14:16:26.683Z,30.82
2018-09-23T14:18:53.024Z,30.81
2018-09-23T14:21:19.379Z,30.79
2018-09-23T14:23:45.741Z,30.77
2018-09-23T14:26:12.075Z,30.73
2018-09-23T14:28:38.456Z,30.68
2018-09-23T14:31:05.184Z,30.63
2018-09-23T14:33:31.711Z,30.61
2018-09-23T14:35:58.056Z,30.59
2018-09-23T14:38:24.387Z,30.54
2018-09-23T14:40:50.779Z,30.50
2018-09-23T14:43:17.118Z,30.45
2018-09-23T14:45:43.488Z,30.44
2018-09-23T14:48:09.885Z,30.41
2018-09-23T14:50:36.214Z,30.38
2018-09-23T14:53:02.567Z,30.35
2018-09-23T14:55:28.913Z,30.31
2018-09-23T14:57:55.269Z,30.27
2018-09-23T15:00:21.608Z,30.24
2018-09-23T15:02:47.955Z,30.20
2018-09-23T15:05:14.286Z,30.17
2018-09-23T15:07:40.610Z,30.14
2018-09-23T15:10:06.997Z,30.11
2018-09-23T15:12:33.396Z,30.09
2018-09-23T15:14:59.701Z,30.07
2018-09-23T15:17:26.033Z,30.03
2018-09-23T15:19:52.438Z,29.99
2018-09-23T15:22:18.793Z,29.96
2018-09-23T15:24:45.137Z,29.92
2018-09-23T15:27:11.609Z,29.88
2018-09-23T15:29:37.956Z,29.87
2018-09-23T15:32:04.370Z,29.84
2018-09-23T15:34:30.693Z,29.82
2018-09-23T15:36:57.044Z,29.78
2018-09-23T15:39:23.454Z,29.77
2018-09-23T15:41:49.792Z,29.71
2018-09-23T15:44:16.148Z,29.70
2018-09-23T15:46:42.692Z,29.69
2018-09-23T15:49:09.043Z,29.63
2018-09-23T15:51:35.456Z,29.59
2018-09-23T15:54:01.841Z,29.55
2018-09-23T15:56:28.196Z,29.49
2018-09-23T15:58:54.550Z,29.46
2018-09-23T16:01:20.896Z,29.41
2018-09-23T16:03:47.241Z,29.37
2018-09-23T16:06:13.567Z,29.34
2018-09-23T16:08:39.906Z,29.30
2018-09-23T16:11:06.259Z,29.22
2018-09-23T16:13:32.559Z,29.17
2018-09-23T16:15:58.911Z,29.14
2018-09-23T16:18:25.389Z,29.10
2018-09-23T16:20:51.716Z,29.06
2018-09-23T16:23:18.065Z,28.98
2018-09-23T16:25:44.437Z,28.94
2018-09-23T16:28:10.743Z,28.89
2018-09-23T16:30:37.133Z,28.86
2018-09-23T16:33:03.482Z,28.82
2018-09-23T16:35:29.828Z,28.77
2018-09-23T16:37:56.164Z,28.70
2018-09-23T16:40:22.539Z,28.64
2018-09-23T16:42:48.831Z,28.60
2018-09-23T16:45:15.176Z,28.56
2018-09-23T16:47:41.532Z,28.53
2018-09-23T16:50:07.900Z,28.48
2018-09-23T16:52:34.250Z,28.46
2018-09-23T16:55:00.624Z,28.44
2018-09-23T16:57:26.938Z,28.40
2018-09-23T16:59:53.281Z,28.41
2018-09-23T17:02:20.028Z,28.38
2018-09-23T17:04:46.353Z,28.33
2018-09-23T17:07:12.728Z,28.27
2018-09-23T17:09:39.055Z,28.20
2018-09-23T17:12:05.401Z,28.16
2018-09-23T17:14:31.762Z,28.15
2018-09-23T17:16:58.097Z,28.11
2018-09-23T17:19:24.426Z,28.07
2018-09-23T17:21:50.846Z,28.03
2018-09-23T17:24:17.147Z,27.99
2018-09-23T17:26:43.570Z,27.98
2018-09-23T17:29:09.926Z,27.95
2018-09-23T17:31:36.263Z,27.91
2018-09-23T17:34:02.621Z,27.85
2018-09-23T17:36:28.976Z,27.79
2018-09-23T17:38:55.284Z,27.69
2018-09-23T17:41:21.642Z,27.66
2018-09-23T17:43:47.990Z,27.67
2018-09-23T17:46:14.333Z,27.68
2018-09-23T17:48:40.734Z,27.67
2018-09-23T17:51:07.030Z,27.65
2018-09-23T17:53:33.351Z,27.61
2018-09-23T17:55:59.698Z,27.56
2018-09-23T17:58:26.050Z,27.48
2018-09-23T18:00:52.556Z,27.43
2018-09-23T18:03:18.882Z,27.41
2018-09-23T18:05:45.277Z,27.33
2018-09-23T18:08:11.619Z,27.28
2018-09-23T18:10:37.941Z,27.21
2018-09-23T18:13:04.264Z,27.18
2018-09-23T18:15:30.621Z,27.18
2018-09-23T18:17:56.963Z,27.16
2018-09-23T18:20:23.290Z,27.17
2018-09-23T18:22:49.629Z,27.15
2018-09-23T18:25:15.956Z,27.11
2018-09-23T18:27:42.302Z,27.05
2018-09-23T18:30:08.694Z,26.99
2018-09-23T18:32:35.042Z,26.93
2018-09-23T18:35:01.401Z,26.90
2018-09-23T18:37:27.877Z,26.85
2018-09-23T18:39:54.137Z,26.83
2018-09-23T18:42:20.449Z,26.77
2018-09-23T18:44:46.776Z,26.79
2018-09-23T18:47:13.114Z,26.69
2018-09-23T18:49:39.467Z,26.65
2018-09-23T18:52:05.785Z,26.61
2018-09-23T18:54:32.118Z,26.59
2018-09-23T18:56:58.450Z,26.60
2018-09-23T18:59:24.771Z,26.59
2018-09-23T19:01:51.121Z,26.58
2018-09-23T19:04:17.476Z,26.52
2018-09-23T19:06:43.817Z,26.47
2018-09-23T19:09:10.145Z,26.48
2018-09-23T19:11:36.512Z,26.44
2018-09-23T19:14:02.841Z,26.39
2018-09-23T19:16:29.190Z,26.37
2018-09-23T19:18:55.531Z,26.33
2018-09-23T19:21:24.895Z,26.34
2018-09-23T19:23:51.128Z,26.33
2018-09-23T19:26:17.461Z,26.24
2018-09-23T19:28:43.793Z,26.22
2018-09-23T19:31:10.172Z,26.19
2018-09-23T19:33:36.490Z,26.18
2018-09-23T19:36:02.917Z,26.11
2018-09-23T19:38:29.322Z,26.03
2018-09-23T19:40:55.631Z,25.93
2018-09-23T19:43:23.145Z,25.83
2018-09-23T19:45:48.349Z,25.81
2018-09-23T19:48:14.708Z,25.82
2018-09-23T19:50:41.065Z,25.79
2018-09-23T19:53:07.412Z,25.87
2018-09-23T19:55:33.780Z,25.85
2018-09-23T19:58:00.139Z,25.82
2018-09-23T20:00:26.679Z,25.79
2018-09-23T20:02:53.128Z,25.76
2018-09-23T20:05:19.489Z,25.70
2018-09-23T20:07:45.820Z,25.66
2018-09-23T20:10:12.178Z,25.68
2018-09-23T20:12:38.542Z,25.67
2018-09-23T20:15:04.864Z,25.69
2018-09-23T20:17:31.243Z,25.62
2018-09-23T20:19:57.591Z,25.55
2018-09-23T20:22:23.937Z,25.50
2018-09-23T20:24:50.313Z,25.47
2018-09-23T20:27:16.657Z,25.43
2018-09-23T20:29:43.014Z,25.36
2018-09-23T20:32:11.970Z,25.31
2018-09-23T20:34:35.723Z,25.33
2018-09-23T20:37:02.115Z,25.34
2018-09-23T20:39:28.434Z,25.32
2018-09-23T20:41:54.828Z,25.30
2018-09-23T20:44:21.207Z,25.19
2018-09-23T20:46:47.591Z,25.18
2018-09-23T20:49:13.940Z,25.15
2018-09-23T20:51:40.404Z,25.04
2018-09-23T20:54:06.649Z,24.90
2018-09-23T20:56:33.013Z,24.91
2018-09-23T20:58:59.356Z,24.95
2018-09-23T21:01:25.708Z,24.89
2018-09-23T21:03:52.051Z,24.82
2018-09-23T21:06:18.408Z,24.84
2018-09-23T21:08:44.744Z,24.79
2018-09-23T21:11:11.112Z,24.76
2018-09-23T21:13:37.505Z,24.74
2018-09-23T21:16:03.840Z,24.72
2018-09-23T21:18:30.197Z,24.66
2018-09-23T21:20:56.544Z,24.60
2018-09-23T21:23:22.897Z,24.52
2018-09-23T21:25:49.245Z,24.51
2018-09-23T21:28:15.606Z,24.50
2018-09-23T21:30:41.934Z,24.52
2018-09-23T21:33:08.295Z,24.49
2018-09-23T21:35:34.613Z,24.42
2018-09-23T21:38:00.935Z,24.37
2018-09-23T21:40:27.272Z,24.38
2018-09-23T21:42:53.702Z,24.34
2018-09-23T21:45:20.045Z,24.33
2018-09-23T21:47:46.405Z,24.33
2018-09-23T21:50:12.741Z,24.27
2018-09-23T21:52:39.069Z,24.27
2018-09-23T21:55:05.624Z,24.34
2018-09-23T21:57:31.927Z,24.39
2018-09-23T21:59:58.297Z,24.42
2018-09-23T22:02:24.674Z,24.42
2018-09-23T22:04:51.017Z,24.39
2018-09-23T22:07:17.437Z,24.39
2018-09-23T22:09:43.765Z,24.36
2018-09-23T22:12:10.098Z,24.34
2018-09-23T22:14:36.485Z,24.34
2018-09-23T22:17:02.893Z,24.30
2018-09-23T22:19:29.284Z,24.28
2018-09-23T22:21:55.720Z,24.25
2018-09-23T22:24:21.976Z,24.23
2018-09-23T22:26:48.321Z,24.15
2018-09-23T22:29:14.657Z,24.01
2018-09-23T22:31:40.975Z,23.96
2018-09-23T22:34:07.294Z,24.01
2018-09-23T22:36:33.624Z,23.96
2018-09-23T22:38:59.964Z,23.93
2018-09-23T22:41:26.305Z,23.90
2018-09-23T22:43:52.662Z,23.92
2018-09-23T22:46:19.016Z,23.95
2018-09-23T22:48:45.388Z,23.89
2018-09-23T22:51:11.732Z,23.85
2018-09-23T22:53:38.067Z,23.79
2018-09-23T22:56:04.395Z,23.68
2018-09-23T22:58:30.748Z,23.71
2018-09-23T23:00:57.061Z,23.75
2018-09-23T23:03:23.401Z,23.77
2018-09-23T23:05:49.758Z,23.69
2018-09-23T23:08:16.092Z,23.68
2018-09-23T23:10:42.419Z,23.66
2018-09-23T23:13:08.744Z,23.69
2018-09-23T23:15:35.072Z,23.67
2018-09-23T23:18:01.389Z,23.58
2018-09-23T23:20:27.730Z,23.60
2018-09-23T23:22:54.052Z,23.57
2018-09-23T23:25:20.388Z,23.52
2018-09-23T23:27:46.710Z,23.54
2018-09-23T23:30:13.026Z,23.49
2018-09-23T23:32:39.424Z,23.39
2018-09-23T23:35:05.717Z,23.41
2018-09-23T23:37:32.041Z,23.40
2018-09-23T23:39:58.401Z,23.39
2018-09-23T23:42:24.693Z,23.37
2018-09-23T23:44:51.016Z,23.33
2018-09-23T23:47:17.379Z,23.35
2018-09-23T23:49:43.799Z,23.29
2018-09-23T23:52:10.094Z,23.26
2018-09-23T23:54:36.409Z,23.23
2018-09-23T23:57:02.760Z,23.21
2018-09-23T23:59:29.094Z,23.18
